Criders, VA (22820)

12:00 PM EDT on July 29, 2015 (GMT -0400)
Mountain Meadows | | Change Station
CLOSE
Current Station
Personal Weather Station
Location: Mathias, WV
Elevation: 2644 ft
Nearby Weather Stations

Elev 2644 ft 38.95 °N, 78.93 °W | Updated 10 seconds ago

Partly Cloudy
Partly Cloudy
74.9 °F
Feels Like 75 °F
N
0.0
Wind Variable Wind from SSE
Gusts 0.0 mph

Today
High -- | Low -- °F
--% Chance of Precip.
Yesterday
High -- | Low -- °F
Precip. -- in
6:14 AM 8:29 PM
Waxing Gibbous, 96% visible
Pressure 30.06 in
Visibility 10.0 miles
Clouds Scattered Clouds 2000 ft
Scattered Clouds 3800 ft
Heat Index 75 °F
Dew Point 70 °F
Humidity 84%
Rainfall 0.00 in
Snow Depth Not available.
UV 8 out of 12
Pollen 4.10 out of 12
Air Quality Not available.
Flu Activity Not available.
METAR KSHD 291535Z AUTO 15005KT 10SM SCT020 SCT038 29/22 A3006 RMK AO2 T02870219

More Conditions Fewer Conditions

Pressure 30.06 in
Visibility 10.0 miles
Clouds Scattered Clouds 2000 ft
Scattered Clouds 3800 ft
Heat Index 75 °F
Dew Point 70 °F
Humidity 84%
Rainfall 0.00 in
Snow Depth Not available.
UV 8 out of 12
Pollen 4.10 out of 12
Air Quality Not available.
Flu Activity Not available.
METAR KSHD 291535Z AUTO 15005KT 10SM SCT020 SCT038 29/22 A3006 RMK AO2 T02870219

More Conditions Fewer Conditions

10-Day Weather Forecast

×

Almanac

Astronomy

Jul. 29, 2015 Rise Set
Actual Time
Civil Twilight
Nautical Twilight
Astronomical Twilight
Moon
Length of Visible Light
Length of Day
Tomorrow will be .
, % of the Moon is Illuminated

Today's Extremes

State Highs State Lows

Community

WunderPhotos

Upload Photos

1,842,121 photos uploaded!

WunderBlogs® & News

Nearby

Air Quality

  Air Quality AQ Index Pollutant
Not available.

Snow Depth

Station Depth Elevation

Earthquake Activity

City Distance Mag. Time & Date
Minimum magnitude displayed is 2.5.

Coastal Water Temperatures

Place Temperature

Stations

Nearby Weather Stations

Station Location Temp. Windchill Dew Point Humidity Wind Precip. Elev Updated Type